sensor_id;sensor_type;location;lat;lon;timestamp;P1;durP1;ratioP1;P2;durP2;ratioP2
6823;SDS011;58633;49.470;11.004;2022-12-18T00:02:01;71.20;;;31.27;;
6823;SDS011;58633;49.470;11.004;2022-12-18T00:04:29;64.23;;;30.30;;
6823;SDS011;58633;49.470;11.004;2022-12-18T00:06:55;68.20;;;30.77;;
6823;SDS011;58633;49.470;11.004;2022-12-18T00:09:22;60.37;;;29.07;;
6823;SDS011;58633;49.470;11.004;2022-12-18T00:11:48;71.63;;;30.70;;
6823;SDS011;58633;49.470;11.004;2022-12-18T00:14:14;69.93;;;30.80;;
6823;SDS011;58633;49.470;11.004;2022-12-18T00:16:45;70.40;;;30.50;;
6823;SDS011;58633;49.470;11.004;2022-12-18T00:19:12;71.50;;;31.67;;
6823;SDS011;58633;49.470;11.004;2022-12-18T00:21:40;68.07;;;30.30;;
6823;SDS011;58633;49.470;11.004;2022-12-18T00:24:10;69.73;;;30.60;;
6823;SDS011;58633;49.470;11.004;2022-12-18T00:26:38;71.17;;;31.50;;
6823;SDS011;58633;49.470;11.004;2022-12-18T00:29:09;78.60;;;32.53;;
6823;SDS011;58633;49.470;11.004;2022-12-18T00:31:37;79.83;;;31.97;;
6823;SDS011;58633;49.470;11.004;2022-12-18T00:34:03;105.40;;;41.43;;
6823;SDS011;58633;49.470;11.004;2022-12-18T00:36:30;97.33;;;40.63;;
6823;SDS011;58633;49.470;11.004;2022-12-18T00:38:58;71.27;;;31.20;;
6823;SDS011;58633;49.470;11.004;2022-12-18T00:41:25;69.87;;;30.27;;
6823;SDS011;58633;49.470;11.004;2022-12-18T00:44:12;74.23;;;30.73;;
6823;SDS011;58633;49.470;11.004;2022-12-18T00:46:41;57.63;;;27.27;;
6823;SDS011;58633;49.470;11.004;2022-12-18T00:49:08;63.57;;;26.57;;
6823;SDS011;58633;49.470;11.004;2022-12-18T00:51:34;63.13;;;28.27;;
6823;SDS011;58633;49.470;11.004;2022-12-18T00:54:00;67.33;;;27.40;;
6823;SDS011;58633;49.470;11.004;2022-12-18T00:56:26;64.77;;;27.53;;
6823;SDS011;58633;49.470;11.004;2022-12-18T00:58:57;58.50;;;27.97;;
6823;SDS011;58633;49.470;11.004;2022-12-18T01:01:23;61.00;;;27.33;;
6823;SDS011;58633;49.470;11.004;2022-12-18T01:03:50;51.27;;;25.53;;
6823;SDS011;58633;49.470;11.004;2022-12-18T01:06:24;56.40;;;25.37;;
6823;SDS011;58633;49.470;11.004;2022-12-18T01:08:51;56.73;;;26.07;;
6823;SDS011;58633;49.470;11.004;2022-12-18T01:11:18;56.67;;;26.27;;
6823;SDS011;58633;49.470;11.004;2022-12-18T01:13:45;58.17;;;25.60;;
6823;SDS011;58633;49.470;11.004;2022-12-18T01:16:16;56.53;;;26.23;;
6823;SDS011;58633;49.470;11.004;2022-12-18T01:18:43;55.53;;;26.00;;
6823;SDS011;58633;49.470;11.004;2022-12-18T01:21:17;53.63;;;25.33;;
6823;SDS011;58633;49.470;11.004;2022-12-18T01:23:50;49.07;;;21.07;;
6823;SDS011;58633;49.470;11.004;2022-12-18T01:26:16;51.13;;;23.90;;
6823;SDS011;58633;49.470;11.004;2022-12-18T01:28:43;60.77;;;22.37;;
6823;SDS011;58633;49.470;11.004;2022-12-18T01:31:18;46.20;;;19.93;;
6823;SDS011;58633;49.470;11.004;2022-12-18T01:33:44;59.97;;;21.13;;
6823;SDS011;58633;49.470;11.004;2022-12-18T01:36:14;62.77;;;20.90;;
6823;SDS011;58633;49.470;11.004;2022-12-18T01:38:41;58.30;;;21.03;;
6823;SDS011;58633;49.470;11.004;2022-12-18T01:41:17;54.07;;;21.87;;
6823;SDS011;58633;49.470;11.004;2022-12-18T01:43:45;69.67;;;20.87;;
6823;SDS011;58633;49.470;11.004;2022-12-18T01:46:13;56.00;;;20.83;;
6823;SDS011;58633;49.470;11.004;2022-12-18T01:48:41;77.07;;;21.43;;
6823;SDS011;58633;49.470;11.004;2022-12-18T01:51:10;52.37;;;18.90;;
6823;SDS011;58633;49.470;11.004;2022-12-18T01:53:37;59.70;;;20.47;;
6823;SDS011;58633;49.470;11.004;2022-12-18T01:56:12;73.60;;;17.90;;
6823;SDS011;58633;49.470;11.004;2022-12-18T01:59:02;53.70;;;19.20;;
6823;SDS011;58633;49.470;11.004;2022-12-18T02:01:29;70.80;;;19.93;;
6823;SDS011;58633;49.470;11.004;2022-12-18T02:03:56;62.53;;;19.47;;
6823;SDS011;58633;49.470;11.004;2022-12-18T02:06:44;55.30;;;20.53;;
6823;SDS011;58633;49.470;11.004;2022-12-18T02:09:21;48.77;;;17.80;;
6823;SDS011;58633;49.470;11.004;2022-12-18T02:11:57;52.80;;;19.10;;
6823;SDS011;58633;49.470;11.004;2022-12-18T02:14:44;49.90;;;18.03;;
6823;SDS011;58633;49.470;11.004;2022-12-18T02:17:30;49.63;;;19.57;;
6823;SDS011;58633;49.470;11.004;2022-12-18T02:23:03;42.83;;;18.83;;
6823;SDS011;58633;49.470;11.004;2022-12-18T02:28:36;48.93;;;17.80;;
6823;SDS011;58633;49.470;11.004;2022-12-18T02:31:06;46.17;;;18.97;;
6823;SDS011;58633;49.470;11.004;2022-12-18T02:33:34;55.27;;;18.47;;
6823;SDS011;58633;49.470;11.004;2022-12-18T02:36:06;46.63;;;17.20;;
6823;SDS011;58633;49.470;11.004;2022-12-18T02:38:34;51.33;;;19.37;;
6823;SDS011;58633;49.470;11.004;2022-12-18T02:41:02;53.87;;;19.33;;
6823;SDS011;58633;49.470;11.004;2022-12-18T02:43:29;50.83;;;18.63;;
6823;SDS011;58633;49.470;11.004;2022-12-18T02:45:59;50.53;;;19.57;;
6823;SDS011;58633;49.470;11.004;2022-12-18T02:48:30;46.53;;;17.97;;
6823;SDS011;58633;49.470;11.004;2022-12-18T02:53:24;44.50;;;17.63;;
6823;SDS011;58633;49.470;11.004;2022-12-18T03:03:57;45.43;;;17.53;;
6823;SDS011;58633;49.470;11.004;2022-12-18T03:06:30;44.27;;;17.67;;
6823;SDS011;58633;49.470;11.004;2022-12-18T03:09:19;44.73;;;17.20;;
6823;SDS011;58633;49.470;11.004;2022-12-18T03:11:45;39.23;;;17.07;;
6823;SDS011;58633;49.470;11.004;2022-12-18T03:14:31;37.80;;;16.03;;
6823;SDS011;58633;49.470;11.004;2022-12-18T03:17:01;46.83;;;17.60;;
6823;SDS011;58633;49.470;11.004;2022-12-18T03:19:29;38.30;;;16.37;;
6823;SDS011;58633;49.470;11.004;2022-12-18T03:21:57;39.77;;;15.57;;
6823;SDS011;58633;49.470;11.004;2022-12-18T03:24:24;40.77;;;17.17;;
6823;SDS011;58633;49.470;11.004;2022-12-18T03:26:53;44.37;;;17.47;;
6823;SDS011;58633;49.470;11.004;2022-12-18T03:29:21;41.97;;;16.10;;
6823;SDS011;58633;49.470;11.004;2022-12-18T03:31:49;43.43;;;16.50;;
6823;SDS011;58633;49.470;11.004;2022-12-18T03:34:22;44.83;;;15.77;;
6823;SDS011;58633;49.470;11.004;2022-12-18T03:36:49;37.87;;;16.73;;
6823;SDS011;58633;49.470;11.004;2022-12-18T03:39:15;42.00;;;15.87;;
6823;SDS011;58633;49.470;11.004;2022-12-18T03:41:45;41.47;;;16.77;;
6823;SDS011;58633;49.470;11.004;2022-12-18T03:44:26;44.23;;;16.57;;
6823;SDS011;58633;49.470;11.004;2022-12-18T03:51:53;44.13;;;17.37;;
6823;SDS011;58633;49.470;11.004;2022-12-18T03:54:28;37.37;;;15.93;;
6823;SDS011;58633;49.470;11.004;2022-12-18T03:56:57;36.20;;;15.77;;
6823;SDS011;58633;49.470;11.004;2022-12-18T03:59:24;42.43;;;16.90;;
6823;SDS011;58633;49.470;11.004;2022-12-18T04:01:51;44.47;;;16.67;;
6823;SDS011;58633;49.470;11.004;2022-12-18T04:04:19;42.03;;;16.67;;
6823;SDS011;58633;49.470;11.004;2022-12-18T04:06:46;43.67;;;16.97;;
6823;SDS011;58633;49.470;11.004;2022-12-18T04:09:13;42.37;;;16.57;;
6823;SDS011;58633;49.470;11.004;2022-12-18T04:11:39;39.20;;;16.43;;
6823;SDS011;58633;49.470;11.004;2022-12-18T04:14:06;37.90;;;16.87;;
6823;SDS011;58633;49.470;11.004;2022-12-18T04:16:32;40.20;;;16.43;;
6823;SDS011;58633;49.470;11.004;2022-12-18T04:18:58;36.80;;;15.77;;
6823;SDS011;58633;49.470;11.004;2022-12-18T04:21:24;39.93;;;16.20;;
6823;SDS011;58633;49.470;11.004;2022-12-18T04:23:50;37.93;;;15.30;;
6823;SDS011;58633;49.470;11.004;2022-12-18T04:26:16;40.40;;;16.13;;
6823;SDS011;58633;49.470;11.004;2022-12-18T04:28:41;39.07;;;16.77;;
6823;SDS011;58633;49.470;11.004;2022-12-18T04:31:07;35.63;;;15.33;;
6823;SDS011;58633;49.470;11.004;2022-12-18T04:33:33;39.57;;;15.23;;
6823;SDS011;58633;49.470;11.004;2022-12-18T04:35:59;40.90;;;15.17;;
6823;SDS011;58633;49.470;11.004;2022-12-18T04:38:25;35.30;;;14.40;;
6823;SDS011;58633;49.470;11.004;2022-12-18T04:40:51;38.10;;;15.63;;
6823;SDS011;58633;49.470;11.004;2022-12-18T04:43:17;36.37;;;14.73;;
6823;SDS011;58633;49.470;11.004;2022-12-18T04:45:43;33.93;;;13.90;;
6823;SDS011;58633;49.470;11.004;2022-12-18T04:48:09;35.63;;;15.33;;
6823;SDS011;58633;49.470;11.004;2022-12-18T04:50:35;34.60;;;14.90;;
6823;SDS011;58633;49.470;11.004;2022-12-18T04:53:00;34.77;;;15.17;;
6823;SDS011;58633;49.470;11.004;2022-12-18T04:55:26;32.10;;;13.43;;
6823;SDS011;58633;49.470;11.004;2022-12-18T04:57:52;31.70;;;13.83;;
6823;SDS011;58633;49.470;11.004;2022-12-18T05:00:19;34.07;;;13.93;;
6823;SDS011;58633;49.470;11.004;2022-12-18T05:02:45;32.57;;;14.40;;
6823;SDS011;58633;49.470;11.004;2022-12-18T05:05:11;34.60;;;14.03;;
6823;SDS011;58633;49.470;11.004;2022-12-18T05:07:37;36.17;;;14.47;;
6823;SDS011;58633;49.470;11.004;2022-12-18T05:10:03;36.23;;;14.73;;
6823;SDS011;58633;49.470;11.004;2022-12-18T05:12:30;33.87;;;14.40;;
6823;SDS011;58633;49.470;11.004;2022-12-18T05:14:56;36.33;;;15.37;;
6823;SDS011;58633;49.470;11.004;2022-12-18T05:17:22;34.20;;;14.77;;
6823;SDS011;58633;49.470;11.004;2022-12-18T05:19:48;32.97;;;14.60;;
6823;SDS011;58633;49.470;11.004;2022-12-18T05:22:14;33.37;;;14.17;;
6823;SDS011;58633;49.470;11.004;2022-12-18T05:24:40;32.13;;;13.83;;
6823;SDS011;58633;49.470;11.004;2022-12-18T05:27:06;32.43;;;14.20;;
6823;SDS011;58633;49.470;11.004;2022-12-18T05:29:32;32.03;;;13.87;;
6823;SDS011;58633;49.470;11.004;2022-12-18T05:31:58;32.37;;;13.87;;
6823;SDS011;58633;49.470;11.004;2022-12-18T05:34:24;37.57;;;14.03;;
6823;SDS011;58633;49.470;11.004;2022-12-18T05:36:50;31.97;;;13.50;;
6823;SDS011;58633;49.470;11.004;2022-12-18T05:39:16;33.53;;;13.87;;
6823;SDS011;58633;49.470;11.004;2022-12-18T05:41:42;32.93;;;14.57;;
6823;SDS011;58633;49.470;11.004;2022-12-18T05:44:08;29.83;;;13.20;;
6823;SDS011;58633;49.470;11.004;2022-12-18T05:46:34;35.17;;;14.77;;
6823;SDS011;58633;49.470;11.004;2022-12-18T05:49:01;34.53;;;13.60;;
6823;SDS011;58633;49.470;11.004;2022-12-18T05:51:27;29.87;;;13.60;;
6823;SDS011;58633;49.470;11.004;2022-12-18T05:53:53;32.60;;;13.47;;
6823;SDS011;58633;49.470;11.004;2022-12-18T05:56:20;28.00;;;13.53;;
6823;SDS011;58633;49.470;11.004;2022-12-18T05:58:47;32.03;;;14.07;;
6823;SDS011;58633;49.470;11.004;2022-12-18T06:01:14;34.90;;;13.67;;
6823;SDS011;58633;49.470;11.004;2022-12-18T06:03:41;31.20;;;13.60;;
6823;SDS011;58633;49.470;11.004;2022-12-18T06:06:15;36.50;;;15.20;;
6823;SDS011;58633;49.470;11.004;2022-12-18T06:08:41;34.43;;;14.03;;
6823;SDS011;58633;49.470;11.004;2022-12-18T06:11:07;35.97;;;15.50;;
6823;SDS011;58633;49.470;11.004;2022-12-18T06:13:33;38.47;;;14.77;;
6823;SDS011;58633;49.470;11.004;2022-12-18T06:16:01;33.93;;;14.63;;
6823;SDS011;58633;49.470;11.004;2022-12-18T06:18:28;29.17;;;12.90;;
6823;SDS011;58633;49.470;11.004;2022-12-18T06:20:57;29.07;;;13.13;;
6823;SDS011;58633;49.470;11.004;2022-12-18T06:23:23;29.80;;;12.70;;
6823;SDS011;58633;49.470;11.004;2022-12-18T06:25:49;28.70;;;12.90;;
6823;SDS011;58633;49.470;11.004;2022-12-18T06:28:15;32.07;;;13.33;;
6823;SDS011;58633;49.470;11.004;2022-12-18T06:30:45;29.10;;;13.50;;
6823;SDS011;58633;49.470;11.004;2022-12-18T06:33:11;31.30;;;13.17;;
6823;SDS011;58633;49.470;11.004;2022-12-18T06:35:37;30.43;;;12.90;;
6823;SDS011;58633;49.470;11.004;2022-12-18T06:38:04;29.43;;;13.70;;
6823;SDS011;58633;49.470;11.004;2022-12-18T06:40:30;26.37;;;12.87;;
6823;SDS011;58633;49.470;11.004;2022-12-18T06:42:56;37.27;;;13.80;;
6823;SDS011;58633;49.470;11.004;2022-12-18T06:45:21;33.60;;;12.73;;
6823;SDS011;58633;49.470;11.004;2022-12-18T06:47:47;30.03;;;13.27;;
6823;SDS011;58633;49.470;11.004;2022-12-18T06:50:13;27.87;;;12.43;;
6823;SDS011;58633;49.470;11.004;2022-12-18T06:52:39;31.23;;;12.93;;
6823;SDS011;58633;49.470;11.004;2022-12-18T06:55:06;31.03;;;13.00;;
6823;SDS011;58633;49.470;11.004;2022-12-18T06:57:33;31.50;;;13.27;;
6823;SDS011;58633;49.470;11.004;2022-12-18T06:59:59;30.07;;;13.37;;
6823;SDS011;58633;49.470;11.004;2022-12-18T07:02:25;35.07;;;13.27;;
6823;SDS011;58633;49.470;11.004;2022-12-18T07:04:51;32.87;;;13.03;;
6823;SDS011;58633;49.470;11.004;2022-12-18T07:07:17;31.60;;;13.13;;
6823;SDS011;58633;49.470;11.004;2022-12-18T07:09:43;38.03;;;13.27;;
6823;SDS011;58633;49.470;11.004;2022-12-18T07:12:09;35.00;;;13.30;;
6823;SDS011;58633;49.470;11.004;2022-12-18T07:14:34;31.13;;;13.73;;
6823;SDS011;58633;49.470;11.004;2022-12-18T07:17:00;32.40;;;13.33;;
6823;SDS011;58633;49.470;11.004;2022-12-18T07:19:26;31.63;;;12.10;;
6823;SDS011;58633;49.470;11.004;2022-12-18T07:21:52;30.97;;;12.93;;
6823;SDS011;58633;49.470;11.004;2022-12-18T07:24:18;30.63;;;12.27;;
6823;SDS011;58633;49.470;11.004;2022-12-18T07:26:47;29.57;;;13.20;;
6823;SDS011;58633;49.470;11.004;2022-12-18T07:29:13;33.20;;;13.80;;
6823;SDS011;58633;49.470;11.004;2022-12-18T07:31:39;30.87;;;12.47;;
6823;SDS011;58633;49.470;11.004;2022-12-18T07:34:05;27.63;;;12.03;;
6823;SDS011;58633;49.470;11.004;2022-12-18T07:36:31;29.03;;;12.57;;
6823;SDS011;58633;49.470;11.004;2022-12-18T07:38:57;32.57;;;13.00;;
6823;SDS011;58633;49.470;11.004;2022-12-18T07:41:23;31.73;;;13.93;;
6823;SDS011;58633;49.470;11.004;2022-12-18T07:43:49;28.07;;;13.03;;
6823;SDS011;58633;49.470;11.004;2022-12-18T07:46:15;32.47;;;13.50;;
6823;SDS011;58633;49.470;11.004;2022-12-18T07:48:41;34.57;;;13.77;;
6823;SDS011;58633;49.470;11.004;2022-12-18T07:51:08;30.80;;;13.40;;
6823;SDS011;58633;49.470;11.004;2022-12-18T07:53:34;31.40;;;14.03;;
6823;SDS011;58633;49.470;11.004;2022-12-18T07:56:05;34.77;;;13.63;;
6823;SDS011;58633;49.470;11.004;2022-12-18T07:58:32;32.47;;;13.67;;
6823;SDS011;58633;49.470;11.004;2022-12-18T08:01:02;36.50;;;13.93;;
6823;SDS011;58633;49.470;11.004;2022-12-18T08:03:31;29.73;;;13.30;;
6823;SDS011;58633;49.470;11.004;2022-12-18T08:05:58;31.77;;;13.43;;
6823;SDS011;58633;49.470;11.004;2022-12-18T08:08:28;32.23;;;13.43;;
6823;SDS011;58633;49.470;11.004;2022-12-18T08:10:54;33.37;;;13.40;;
6823;SDS011;58633;49.470;11.004;2022-12-18T08:13:20;32.80;;;13.90;;
6823;SDS011;58633;49.470;11.004;2022-12-18T08:15:46;32.97;;;13.67;;
6823;SDS011;58633;49.470;11.004;2022-12-18T08:18:12;30.13;;;13.13;;
6823;SDS011;58633;49.470;11.004;2022-12-18T08:20:38;33.53;;;14.73;;
6823;SDS011;58633;49.470;11.004;2022-12-18T08:23:04;33.37;;;13.73;;
6823;SDS011;58633;49.470;11.004;2022-12-18T08:25:29;30.97;;;13.93;;
6823;SDS011;58633;49.470;11.004;2022-12-18T08:27:55;34.33;;;13.90;;
6823;SDS011;58633;49.470;11.004;2022-12-18T08:30:21;35.87;;;15.17;;
6823;SDS011;58633;49.470;11.004;2022-12-18T08:32:50;36.73;;;15.13;;
6823;SDS011;58633;49.470;11.004;2022-12-18T08:35:17;34.97;;;14.70;;
6823;SDS011;58633;49.470;11.004;2022-12-18T08:37:43;37.83;;;15.43;;
6823;SDS011;58633;49.470;11.004;2022-12-18T08:40:09;32.43;;;15.10;;
6823;SDS011;58633;49.470;11.004;2022-12-18T08:42:35;35.17;;;14.40;;
6823;SDS011;58633;49.470;11.004;2022-12-18T08:45:20;26.70;;;10.83;;
6823;SDS011;58633;49.470;11.004;2022-12-18T08:47:45;24.90;;;10.70;;
6823;SDS011;58633;49.470;11.004;2022-12-18T08:50:11;25.07;;;11.47;;
6823;SDS011;58633;49.470;11.004;2022-12-18T08:52:37;25.13;;;10.80;;
6823;SDS011;58633;49.470;11.004;2022-12-18T08:55:03;26.03;;;11.37;;
6823;SDS011;58633;49.470;11.004;2022-12-18T08:57:29;25.70;;;11.57;;
6823;SDS011;58633;49.470;11.004;2022-12-18T08:59:55;28.27;;;12.50;;
6823;SDS011;58633;49.470;11.004;2022-12-18T09:02:21;28.10;;;12.63;;
6823;SDS011;58633;49.470;11.004;2022-12-18T09:04:47;29.77;;;13.00;;
6823;SDS011;58633;49.470;11.004;2022-12-18T09:07:12;30.03;;;12.33;;
6823;SDS011;58633;49.470;11.004;2022-12-18T09:09:39;26.80;;;12.47;;
6823;SDS011;58633;49.470;11.004;2022-12-18T09:12:05;24.90;;;9.77;;
6823;SDS011;58633;49.470;11.004;2022-12-18T09:14:31;25.80;;;11.60;;
6823;SDS011;58633;49.470;11.004;2022-12-18T09:16:56;23.90;;;12.07;;
6823;SDS011;58633;49.470;11.004;2022-12-18T09:19:22;22.33;;;10.17;;
6823;SDS011;58633;49.470;11.004;2022-12-18T09:21:48;24.87;;;11.40;;
6823;SDS011;58633;49.470;11.004;2022-12-18T09:24:15;28.80;;;11.60;;
6823;SDS011;58633;49.470;11.004;2022-12-18T09:26:41;23.43;;;10.53;;
6823;SDS011;58633;49.470;11.004;2022-12-18T09:29:07;26.23;;;11.70;;
6823;SDS011;58633;49.470;11.004;2022-12-18T09:31:32;28.10;;;11.57;;
6823;SDS011;58633;49.470;11.004;2022-12-18T09:33:58;31.47;;;12.83;;
6823;SDS011;58633;49.470;11.004;2022-12-18T09:36:24;27.87;;;12.77;;
6823;SDS011;58633;49.470;11.004;2022-12-18T09:38:50;30.50;;;12.77;;
6823;SDS011;58633;49.470;11.004;2022-12-18T09:41:31;28.37;;;12.53;;
6823;SDS011;58633;49.470;11.004;2022-12-18T09:44:05;23.43;;;11.30;;
6823;SDS011;58633;49.470;11.004;2022-12-18T09:46:37;23.00;;;10.53;;
6823;SDS011;58633;49.470;11.004;2022-12-18T09:49:11;19.80;;;9.43;;
6823;SDS011;58633;49.470;11.004;2022-12-18T09:51:40;22.30;;;10.30;;
6823;SDS011;58633;49.470;11.004;2022-12-18T09:54:24;20.77;;;9.57;;
6823;SDS011;58633;49.470;11.004;2022-12-18T09:56:56;23.30;;;10.30;;
6823;SDS011;58633;49.470;11.004;2022-12-18T09:59:29;25.17;;;9.63;;
6823;SDS011;58633;49.470;11.004;2022-12-18T10:02:10;19.50;;;9.67;;
6823;SDS011;58633;49.470;11.004;2022-12-18T10:04:41;21.07;;;10.63;;
6823;SDS011;58633;49.470;11.004;2022-12-18T10:07:15;24.37;;;10.30;;
6823;SDS011;58633;49.470;11.004;2022-12-18T10:09:50;24.37;;;11.10;;
6823;SDS011;58633;49.470;11.004;2022-12-18T10:17:38;25.83;;;10.77;;
6823;SDS011;58633;49.470;11.004;2022-12-18T10:20:13;20.83;;;10.57;;
6823;SDS011;58633;49.470;11.004;2022-12-18T10:25:41;24.40;;;11.27;;
6823;SDS011;58633;49.470;11.004;2022-12-18T10:28:25;22.57;;;10.57;;
6823;SDS011;58633;49.470;11.004;2022-12-18T10:30:54;23.70;;;11.13;;
6823;SDS011;58633;49.470;11.004;2022-12-18T10:33:21;23.03;;;10.80;;
6823;SDS011;58633;49.470;11.004;2022-12-18T10:35:49;23.07;;;10.73;;
6823;SDS011;58633;49.470;11.004;2022-12-18T10:40:48;26.70;;;11.27;;
6823;SDS011;58633;49.470;11.004;2022-12-18T10:43:21;25.57;;;10.97;;
6823;SDS011;58633;49.470;11.004;2022-12-18T10:45:57;25.77;;;11.63;;
6823;SDS011;58633;49.470;11.004;2022-12-18T10:48:30;22.83;;;11.30;;
6823;SDS011;58633;49.470;11.004;2022-12-18T10:50:57;26.37;;;11.33;;
6823;SDS011;58633;49.470;11.004;2022-12-18T10:53:25;22.20;;;10.00;;
6823;SDS011;58633;49.470;11.004;2022-12-18T10:55:53;24.63;;;10.70;;
6823;SDS011;58633;49.470;11.004;2022-12-18T10:58:26;27.43;;;11.43;;
6823;SDS011;58633;49.470;11.004;2022-12-18T11:03:44;28.87;;;13.53;;
6823;SDS011;58633;49.470;11.004;2022-12-18T11:06:30;26.20;;;13.07;;
6823;SDS011;58633;49.470;11.004;2022-12-18T11:09:00;24.93;;;11.60;;
6823;SDS011;58633;49.470;11.004;2022-12-18T11:11:28;23.90;;;11.67;;
6823;SDS011;58633;49.470;11.004;2022-12-18T11:14:03;24.00;;;10.80;;
6823;SDS011;58633;49.470;11.004;2022-12-18T11:16:46;25.00;;;10.97;;
6823;SDS011;58633;49.470;11.004;2022-12-18T11:19:28;21.70;;;11.10;;
6823;SDS011;58633;49.470;11.004;2022-12-18T11:22:00;29.30;;;12.27;;
6823;SDS011;58633;49.470;11.004;2022-12-18T11:24:29;23.03;;;11.37;;
6823;SDS011;58633;49.470;11.004;2022-12-18T11:26:58;25.23;;;11.43;;
6823;SDS011;58633;49.470;11.004;2022-12-18T11:29:37;26.27;;;12.60;;
6823;SDS011;58633;49.470;11.004;2022-12-18T11:35:14;26.60;;;12.27;;
6823;SDS011;58633;49.470;11.004;2022-12-18T11:37:49;23.97;;;10.80;;
6823;SDS011;58633;49.470;11.004;2022-12-18T11:40:29;26.53;;;12.40;;
6823;SDS011;58633;49.470;11.004;2022-12-18T11:43:02;26.63;;;11.60;;
6823;SDS011;58633;49.470;11.004;2022-12-18T11:45:35;24.93;;;11.70;;
6823;SDS011;58633;49.470;11.004;2022-12-18T11:48:15;25.57;;;12.53;;
6823;SDS011;58633;49.470;11.004;2022-12-18T11:51:00;26.00;;;11.73;;
6823;SDS011;58633;49.470;11.004;2022-12-18T11:53:29;25.27;;;11.83;;
6823;SDS011;58633;49.470;11.004;2022-12-18T11:56:00;23.07;;;11.07;;
6823;SDS011;58633;49.470;11.004;2022-12-18T11:58:45;24.20;;;11.20;;
6823;SDS011;58633;49.470;11.004;2022-12-18T12:01:20;26.37;;;11.27;;
6823;SDS011;58633;49.470;11.004;2022-12-18T12:06:28;28.03;;;12.47;;
6823;SDS011;58633;49.470;11.004;2022-12-18T12:17:42;25.40;;;11.87;;
6823;SDS011;58633;49.470;11.004;2022-12-18T12:23:01;26.70;;;12.53;;
6823;SDS011;58633;49.470;11.004;2022-12-18T12:25:49;25.20;;;12.13;;
6823;SDS011;58633;49.470;11.004;2022-12-18T12:34:26;24.67;;;11.70;;
6823;SDS011;58633;49.470;11.004;2022-12-18T12:36:51;25.87;;;11.73;;
6823;SDS011;58633;49.470;11.004;2022-12-18T12:39:32;23.13;;;11.00;;
6823;SDS011;58633;49.470;11.004;2022-12-18T12:42:04;27.17;;;12.23;;
6823;SDS011;58633;49.470;11.004;2022-12-18T12:44:51;25.80;;;12.13;;
6823;SDS011;58633;49.470;11.004;2022-12-18T12:47:41;27.87;;;12.53;;
6823;SDS011;58633;49.470;11.004;2022-12-18T12:50:11;23.87;;;10.93;;
6823;SDS011;58633;49.470;11.004;2022-12-18T12:52:45;24.57;;;12.10;;
6823;SDS011;58633;49.470;11.004;2022-12-18T12:55:24;27.70;;;11.83;;
6823;SDS011;58633;49.470;11.004;2022-12-18T12:57:56;23.73;;;12.00;;
6823;SDS011;58633;49.470;11.004;2022-12-18T13:00:41;24.40;;;11.63;;
6823;SDS011;58633;49.470;11.004;2022-12-18T13:03:27;23.20;;;10.27;;
6823;SDS011;58633;49.470;11.004;2022-12-18T13:06:09;25.10;;;11.27;;
6823;SDS011;58633;49.470;11.004;2022-12-18T13:08:56;26.73;;;12.03;;
6823;SDS011;58633;49.470;11.004;2022-12-18T13:11:31;24.80;;;11.63;;
6823;SDS011;58633;49.470;11.004;2022-12-18T13:14:22;25.77;;;11.57;;
6823;SDS011;58633;49.470;11.004;2022-12-18T13:17:14;25.67;;;12.00;;
6823;SDS011;58633;49.470;11.004;2022-12-18T13:19:49;23.77;;;12.00;;
6823;SDS011;58633;49.470;11.004;2022-12-18T13:22:30;25.33;;;12.00;;
6823;SDS011;58633;49.470;11.004;2022-12-18T13:24:59;24.67;;;10.77;;
6823;SDS011;58633;49.470;11.004;2022-12-18T13:27:44;26.07;;;11.40;;
6823;SDS011;58633;49.470;11.004;2022-12-18T13:38:32;26.83;;;11.87;;
6823;SDS011;58633;49.470;11.004;2022-12-18T13:43:44;26.83;;;12.67;;
6823;SDS011;58633;49.470;11.004;2022-12-18T13:48:58;20.00;;;10.70;;
6823;SDS011;58633;49.470;11.004;2022-12-18T13:51:25;27.03;;;12.27;;
6823;SDS011;58633;49.470;11.004;2022-12-18T13:56:18;24.93;;;12.10;;
6823;SDS011;58633;49.470;11.004;2022-12-18T14:01:59;22.63;;;10.70;;
6823;SDS011;58633;49.470;11.004;2022-12-18T14:04:31;25.07;;;12.00;;
6823;SDS011;58633;49.470;11.004;2022-12-18T14:07:09;27.10;;;12.27;;
6823;SDS011;58633;49.470;11.004;2022-12-18T14:09:40;25.27;;;11.60;;
6823;SDS011;58633;49.470;11.004;2022-12-18T14:12:32;22.37;;;11.27;;
6823;SDS011;58633;49.470;11.004;2022-12-18T14:15:34;25.23;;;11.63;;
6823;SDS011;58633;49.470;11.004;2022-12-18T14:20:56;23.93;;;11.20;;
6823;SDS011;58633;49.470;11.004;2022-12-18T14:23:36;23.43;;;11.80;;
6823;SDS011;58633;49.470;11.004;2022-12-18T14:26:19;28.93;;;12.13;;
6823;SDS011;58633;49.470;11.004;2022-12-18T14:28:46;26.57;;;12.63;;
6823;SDS011;58633;49.470;11.004;2022-12-18T14:31:30;23.77;;;11.77;;
6823;SDS011;58633;49.470;11.004;2022-12-18T14:33:56;23.23;;;11.60;;
6823;SDS011;58633;49.470;11.004;2022-12-18T14:36:23;27.30;;;11.93;;
6823;SDS011;58633;49.470;11.004;2022-12-18T14:38:51;23.93;;;11.60;;
6823;SDS011;58633;49.470;11.004;2022-12-18T14:41:21;24.87;;;11.37;;
6823;SDS011;58633;49.470;11.004;2022-12-18T14:43:48;24.80;;;12.17;;
6823;SDS011;58633;49.470;11.004;2022-12-18T14:49:00;25.97;;;12.80;;
6823;SDS011;58633;49.470;11.004;2022-12-18T14:51:54;27.13;;;12.63;;
6823;SDS011;58633;49.470;11.004;2022-12-18T14:54:23;27.13;;;12.83;;
6823;SDS011;58633;49.470;11.004;2022-12-18T14:59:45;26.97;;;13.00;;
6823;SDS011;58633;49.470;11.004;2022-12-18T15:02:26;24.60;;;12.27;;
6823;SDS011;58633;49.470;11.004;2022-12-18T15:07:43;21.57;;;9.90;;
6823;SDS011;58633;49.470;11.004;2022-12-18T15:10:12;22.03;;;10.73;;
6823;SDS011;58633;49.470;11.004;2022-12-18T15:12:44;24.23;;;11.63;;
6823;SDS011;58633;49.470;11.004;2022-12-18T15:15:43;23.47;;;11.63;;
6823;SDS011;58633;49.470;11.004;2022-12-18T15:18:11;23.27;;;11.50;;
6823;SDS011;58633;49.470;11.004;2022-12-18T15:20:55;23.77;;;11.40;;
6823;SDS011;58633;49.470;11.004;2022-12-18T15:26:10;27.67;;;12.10;;
6823;SDS011;58633;49.470;11.004;2022-12-18T15:28:39;21.33;;;10.63;;
6823;SDS011;58633;49.470;11.004;2022-12-18T15:34:01;25.03;;;11.30;;
6823;SDS011;58633;49.470;11.004;2022-12-18T15:36:32;26.00;;;11.77;;
6823;SDS011;58633;49.470;11.004;2022-12-18T15:39:01;22.47;;;11.23;;
6823;SDS011;58633;49.470;11.004;2022-12-18T15:41:28;25.13;;;10.93;;
6823;SDS011;58633;49.470;11.004;2022-12-18T15:43:58;23.50;;;11.20;;
6823;SDS011;58633;49.470;11.004;2022-12-18T15:46:24;25.10;;;11.83;;
6823;SDS011;58633;49.470;11.004;2022-12-18T15:48:56;27.17;;;11.77;;
6823;SDS011;58633;49.470;11.004;2022-12-18T15:51:28;23.47;;;11.87;;
6823;SDS011;58633;49.470;11.004;2022-12-18T15:54:00;24.83;;;12.23;;
6823;SDS011;58633;49.470;11.004;2022-12-18T15:56:28;26.30;;;12.53;;
6823;SDS011;58633;49.470;11.004;2022-12-18T15:59:14;30.60;;;12.53;;
6823;SDS011;58633;49.470;11.004;2022-12-18T16:01:42;27.63;;;12.43;;
6823;SDS011;58633;49.470;11.004;2022-12-18T16:04:14;25.93;;;12.50;;
6823;SDS011;58633;49.470;11.004;2022-12-18T16:06:41;25.53;;;12.77;;
6823;SDS011;58633;49.470;11.004;2022-12-18T16:09:07;28.03;;;12.47;;
6823;SDS011;58633;49.470;11.004;2022-12-18T16:11:33;29.07;;;12.67;;
6823;SDS011;58633;49.470;11.004;2022-12-18T16:16:43;26.97;;;12.43;;